Terminal Aerodrome Forecast
Issued by NWS

Home | Current Version | Previous Version | Text Only | Print | Product List | Glossary On
Versions: 1 2 3 4 5 6 7 8 9 10 11 12 13 14 15 16 17 18 19 20 21 22 23 24 25 26 27 28 29 30 31 32
000
FTUS42 KCAE 020000 AAA
TAFOGB
TAF AMD
KOGB 020059Z 0201/0224 VRB03KT 5SM BR OVC004
     FM020500 VRB03KT 1SM BR OVC003
     FM021600 28006KT 4SM BR BKN008
     FM021700 29008KT P6SM OVC015=

USA.gov is the U.S. government's official web portal to all federal, state and local government web resources and services.